| time (UTC) | temp F | wind direction | speed MPH | gust MPH | rain 1hr in | rain 24hr in | rain mn in | humidity % | barometer mb |
| 20260507090009 | 54 | 36 | 4.0 | 7.0 | 0.00 | 0.05 | 0.00 | 80 | 1016.1 |
| 20260507084603 | 55 | 23 | 6.0 | 9.0 | 0.00 | 0.05 | 0.00 | 82 | 1016.0 |
| 20260507083027 | 53 | 21 | 3.0 | 7.0 | 0.00 | 0.05 | 0.00 | 86 | 1016.1 |
| 20260507081508 | 51 | 360 | 3.0 | 5.0 | 0.00 | 0.05 | 0.00 | 91 | 1016.0 |
| 20260507080046 | 50 | 28 | 3.0 | 6.0 | 0.00 | 0.05 | 0.00 | 94 | 1015.9 |
| 20260507074515 | 49 | 18 | 2.0 | 7.0 | 0.00 | 0.06 | 0.00 | 96 | 1015.8 |
| 20260507073102 | 48 | 13 | 2.0 | 7.0 | 0.00 | 0.06 | 0.00 | 97 | 1015.8 |
| 20260507071526 | 48 | 355 | 2.0 | 5.0 | 0.00 | 0.06 | 0.00 | 98 | 1015.7 |
| 20260507070104 | 47 | 351 | 3.0 | 5.0 | 0.00 | 0.06 | 0.00 | 98 | 1015.6 |
| 20260507064540 | 47 | 355 | 1.0 | 3.0 | 0.00 | 0.07 | 0.00 | 98 | 1015.5 |
| 20260507063009 | 46 | 355 | 2.0 | 3.0 | 0.00 | 0.07 | 0.00 | 98 | 1015.4 |
| 20260507061545 | 45 | 355 | 1.0 | 3.0 | 0.00 | 0.07 | 0.00 | 98 | 1015.2 |
| 20260507060016 | 44 | 276 | 0.0 | 0.0 | 0.00 | 0.07 | 0.00 | 97 | 1015.2 |
| 20260507054550 | 43 | 276 | 0.0 | 0.0 | 0.00 | 0.10 | 0.00 | 97 | 1015.0 |
| 20260507053027 | 43 | 276 | 0.0 | 0.0 | 0.00 | 0.10 | 0.00 | 97 | 1014.8 |
| 20260507051602 | 43 | 276 | 0.0 | 1.0 | 0.00 | 0.10 | 0.00 | 97 | 1014.8 |
| 20260507050036 | 42 | 276 | 0.0 | 1.0 | 0.00 | 0.10 | 0.00 | 97 | 1014.6 |
| 20260507044515 | 42 | 276 | 1.0 | 2.0 | 0.00 | 0.14 | 0.00 | 97 | 1014.4 |
| 20260507043101 | 42 | 276 | 0.0 | 1.0 | 0.00 | 0.14 | 0.00 | 97 | 1014.3 |
| 20260507041529 | 42 | 276 | 1.0 | 2.0 | 0.00 | 0.14 | 0.00 | 97 | 1014.2 |
| 20260507040100 | 42 | 276 | 0.0 | 2.0 | 0.00 | 0.14 | 0.00 | 97 | 1014.1 |
| 20260507034541 | 42 | 276 | 0.0 | 2.0 | 0.00 | 0.16 | 0.00 | 97 | 1014.0 |
| 20260507033009 | 42 | 276 | 0.0 | 2.0 | 0.00 | 0.16 | 0.00 | 97 | 1014.0 |
| 20260507031547 | 42 | 276 | 0.0 | 1.0 | 0.00 | 0.16 | 0.00 | 97 | 1014.0 |
| 20260507030025 | 42 | 276 | 0.0 | 1.0 | 0.00 | 0.16 | 0.00 | 96 | 1013.9 |
| 20260507024600 | 41 | 276 | 0.0 | 1.0 | 0.00 | 0.20 | 0.00 | 96 | 1013.8 |
| 20260507023035 | 41 | 276 | 1.0 | 2.0 | 0.00 | 0.20 | 0.00 | 96 | 1013.7 |
| 20260507021513 | 41 | 276 | 0.0 | 1.0 | 0.00 | 0.20 | 0.00 | 96 | 1013.6 |
| 20260507014533 | 40 | 304 | 1.0 | 2.0 | 0.00 | 0.24 | 0.00 | 95 | 1013.5 |
| 20260507013003 | 40 | 11 | 1.0 | 2.0 | 0.00 | 0.24 | 0.00 | 95 | 1013.4 |
| 20260507011542 | 40 | 11 | 0.0 | 2.0 | 0.00 | 0.24 | 0.00 | 95 | 1013.4 |
| 20260507010004 | 41 | 11 | 0.0 | 1.0 | 0.00 | 0.26 | 0.00 | 95 | 1013.3 |
| 20260507004544 | 41 | 11 | 0.0 | 1.0 | 0.00 | 0.26 | 0.00 | 94 | 1013.3 |
| 20260507003016 | 42 | 11 | 0.0 | 1.0 | 0.00 | 0.26 | 0.00 | 94 | 1013.3 |
| 20260507001611 | 42 | 11 | 0.0 | 0.0 | 0.00 | 0.26 | 0.00 | 94 | 1013.2 |
| 20260507000032 | 43 | 11 | 0.0 | 0.0 | 0.00 | 0.26 | 0.00 | 94 | 1013.2 |
| 20260506234603 | 43 | 11 | 0.0 | 1.0 | 0.00 | 0.28 | 0.00 | 94 | 1013.2 |
| 20260506233032 | 43 | 11 | 0.0 | 2.0 | 0.00 | 0.28 | 0.00 | 93 | 1013.1 |
| 20260506231510 | 43 | 11 | 0.0 | 1.0 | 0.00 | 0.28 | 0.00 | 92 | 1013.0 |
| 20260506230056 | 44 | 11 | 0.0 | 0.0 | 0.00 | 0.28 | 0.00 | 92 | 1012.8 |
| 20260506224525 | 44 | 11 | 0.0 | 1.0 | 0.00 | 0.31 | 0.28 | 91 | 1012.8 |
| 20260506223029 | 45 | 318 | 1.0 | 4.0 | 0.00 | 0.31 | 0.28 | 91 | 1012.7 |
| 20260506221517 | 46 | 9 | 4.0 | 7.0 | 0.00 | 0.31 | 0.28 | 91 | 1012.5 |
| 20260506220057 | 47 | 350 | 1.0 | 4.0 | 0.00 | 0.31 | 0.28 | 91 | 1012.4 |
| 20260506214544 | 47 | 360 | 3.0 | 6.0 | 0.00 | 0.32 | 0.28 | 91 | 1012.4 |
| 20260506213019 | 47 | 355 | 3.0 | 6.0 | 0.00 | 0.32 | 0.28 | 91 | 1012.4 |
| 20260506211507 | 48 | 15 | 2.0 | 6.0 | 0.00 | 0.32 | 0.28 | 92 | 1012.3 |
| 20260506210057 | 48 | 355 | 3.0 | 5.0 | 0.00 | 0.32 | 0.28 | 93 | 1012.1 |
| 20260506204545 | 49 | 25 | 2.0 | 5.0 | 0.00 | 0.33 | 0.28 | 92 | 1012.0 |
| 20260506203015 | 49 | 30 | 1.0 | 3.0 | 0.00 | 0.33 | 0.28 | 92 | 1011.8 |
| 20260506201557 | 50 | 344 | 0.0 | 2.0 | 0.00 | 0.33 | 0.28 | 92 | 1011.5 |
| 20260506200101 | 50 | 344 | 0.0 | 3.0 | 0.00 | 0.33 | 0.28 | 91 | 1011.5 |
| 20260506194537 | 50 | 254 | 0.0 | 4.0 | 0.00 | 0.35 | 0.28 | 91 | 1011.4 |
| 20260506193032 | 50 | 278 | 0.0 | 3.0 | 0.00 | 0.35 | 0.28 | 91 | 1011.2 |
| 20260506191555 | 50 | 278 | 1.0 | 3.0 | 0.00 | 0.35 | 0.28 | 90 | 1011.0 |
| 20260506190054 | 50 | 309 | 1.0 | 3.0 | 0.00 | 0.35 | 0.28 | 90 | 1010.9 |
| 20260506184549 | 51 | 288 | 0.0 | 3.0 | 0.00 | 0.38 | 0.28 | 91 | 1010.8 |
| 20260506183028 | 51 | 287 | 0.0 | 3.0 | 0.00 | 0.38 | 0.28 | 92 | 1010.7 |
| 20260506181514 | 51 | 309 | 0.0 | 2.0 | 0.00 | 0.38 | 0.28 | 92 | 1010.5 |
| 20260506180030 | 51 | 262 | 0.0 | 2.0 | 0.00 | 0.38 | 0.28 | 92 | 1010.4 |
| 20260506174600 | 51 | 245 | 0.0 | 3.0 | 0.00 | 0.40 | 0.28 | 91 | 1010.3 |
| 20260506173028 | 51 | 283 | 0.0 | 2.0 | 0.00 | 0.40 | 0.28 | 90 | 1010.2 |
| 20260506171555 | 51 | 302 | 1.0 | 5.0 | 0.00 | 0.40 | 0.28 | 89 | 1010.0 |
| 20260506170027 | 52 | 265 | 1.0 | 4.0 | 0.00 | 0.40 | 0.28 | 89 | 1009.9 |
| 20260506164620 | 52 | 259 | 1.0 | 4.0 | 0.00 | 0.41 | 0.28 | 88 | 1009.8 |
| 20260506163022 | 52 | 306 | 1.0 | 6.0 | 0.00 | 0.41 | 0.28 | 88 | 1009.7 |
| 20260506161512 | 52 | 291 | 3.0 | 7.0 | 0.00 | 0.41 | 0.28 | 90 | 1009.8 |
| 20260506160007 | 52 | 269 | 2.0 | 5.0 | 0.00 | 0.41 | 0.28 | 91 | 1009.8 |
| 20260506154542 | 52 | 277 | 0.0 | 4.0 | 0.00 | 0.41 | 0.28 | 93 | 1009.8 |
| 20260506153030 | 52 | 248 | 1.0 | 4.0 | 0.00 | 0.41 | 0.28 | 91 | 1009.9 |
| 20260506151517 | 52 | 257 | 2.0 | 4.0 | 0.00 | 0.41 | 0.28 | 91 | 1009.8 |
| 20260506150010 | 52 | 239 | 2.0 | 6.0 | 0.00 | 0.41 | 0.28 | 90 | 1009.9 |
| 20260506144545 | 52 | 319 | 0.0 | 5.0 | 0.00 | 0.41 | 0.28 | 90 | 1009.8 |
| 20260506143013 | 52 | 277 | 0.0 | 4.0 | 0.00 | 0.41 | 0.28 | 92 | 1009.8 |
| 20260506141544 | 52 | 279 | 0.0 | 4.0 | 0.00 | 0.41 | 0.28 | 93 | 1009.8 |
| 20260506140010 | 52 | 355 | 2.0 | 4.0 | 0.00 | 0.41 | 0.28 | 94 | 1009.8 |
| 20260506134537 | 52 | 262 | 1.0 | 7.0 | 0.00 | 0.41 | 0.28 | 96 | 1009.8 |
| 20260506133007 | 51 | 306 | 3.0 | 7.0 | 0.00 | 0.41 | 0.28 | 97 | 1009.8 |
| 20260506131544 | 50 | 247 | 1.0 | 7.0 | 0.00 | 0.41 | 0.28 | 98 | 1009.8 |
| 20260506130009 | 51 | 338 | 1.0 | 7.0 | 0.00 | 0.41 | 0.28 | 98 | 1009.6 |
| 20260506124557 | 50 | 315 | 3.0 | 10.0 | 0.00 | 0.41 | 0.28 | 98 | 1009.6 |
| 20260506123024 | 49 | 321 | 1.0 | 13.0 | 0.00 | 0.41 | 0.28 | 98 | 1009.5 |
| 20260506121601 | 50 | 9 | 6.0 | 10.0 | 0.00 | 0.41 | 0.28 | 98 | 1009.3 |
| 20260506121503 | 50 | 5 | 7.0 | 10.0 | 0.00 | 0.41 | 0.28 | 99 | 1009.3 |
| 20260506120050 | 50 | 24 | 7.0 | 13.0 | 0.00 | 0.41 | 0.28 | 99 | 1009.3 |
| 20260506114513 | 49 | 350 | 7.0 | 12.0 | 0.00 | 0.41 | 0.28 | 98 | 1009.2 |
| 20260506113038 | 49 | 5 | 8.0 | 14.0 | 0.01 | 0.41 | 0.28 | 99 | 1009.1 |
| 20260506111512 | 49 | 5 | 9.0 | 14.0 | 0.01 | 0.41 | 0.28 | 99 | 1009.0 |
| 20260506110052 | 49 | 11 | 7.0 | 15.0 | 0.01 | 0.41 | 0.28 | 99 | 1009.1 |
| 20260506104536 | 49 | 355 | 7.0 | 10.0 | 0.01 | 0.43 | 0.28 | 99 | 1009.0 |
| 20260506103057 | 48 | 344 | 3.0 | 9.0 | 0.01 | 0.42 | 0.28 | 98 | 1009.1 |
| 20260506101531 | 48 | 360 | 4.0 | 6.0 | 0.02 | 0.42 | 0.28 | 98 | 1009.2 |
| 20260506100007 | 47 | 309 | 0.0 | 6.0 | 0.02 | 0.42 | 0.28 | 99 | 1009.0 |
| 20260506094555 | 47 | 313 | 2.0 | 5.0 | 0.02 | 0.42 | 0.28 | 98 | 1008.9 |
| 20260506093021 | 47 | 36 | 2.0 | 10.0 | 0.02 | 0.41 | 0.28 | 99 | 1008.9 |
| 20260506091554 | 47 | 273 | 0.0 | 6.0 | 0.02 | 0.40 | 0.27 | 99 | 1008.8 |